Hlavní strana
METAR-TAF:

METAR-TAF

Letiště :

Biskra, Alžírsko

zeměpisná šířka: 34-48N, zeměpisná délka: 005-44E, výška: 87 m

Aktuální stav počasí

Zpráva byla vytvořena před 43 minutami, v 18:00 UTC
Jihojihovýchodní vítr 4 kt
Teplota 20°C
Vlhkost vzduchu 35%
Tlak 1013 hPa
Viditelnost 10 km a více
Skoro jasno ve výšce 4000 ft

METAR: DAUB 071800Z 15004KT 9999 FEW040 20/04 Q1013

Čas: 19:43 (18:43 UTC)

Předpověď počasí

Zpráva byla vytvořena před 1 hodinou a 43 minutami, v 17:00 UTC
Předpověď platná od 07 v 18 UTC do 08 v 18 UTC
Východojihovýchodní vítr 8 kt
Viditelnost 10 km a více
Skoro jasno ve výšce 4000 ft
Pravděpodobnost 30% :
Dočasný
od 07 v 18 UTC do 07 v 24 UTC
Skoro jasno ve výšce 3000 ft, Vertikální cumulus.

TAF: DAUB 071700Z 0718/0818 12008KT 9999 FEW040 PROB30 TEMPO 0718/0724 FEW030TCU

Stav a předpovědi počasí z více než 4 000 letišť (zprávy METAR a TAF).

Červené a žluté tečky na mapě představují dostupné meteorologické stanice.

Když kurzor umístíte na tečku, zobrazí se název stanice.

Pak kliknutím zobrazíte stav a předpověď počasí.

Chcete-li změnit mapu, kliknutím na zelené tlačítko se znaménkem +mapu přiblížíte, kliknutím na zelené tlačítko se znaménkem – mapu oddálíte a kliknutím na zelené šipky přejdete na sousední mapy.


METAR-TAF: